Time;durP1;ratioP1;P1;durP2;ratioP2;P2;SDS_P1;SDS_P2;PMS_P1;PMS_P2;Temp;Humidity;BMP_temperature;BMP_pressure;BME280_temperature;BME280_humidity;BME280_pressure;Samples;Min_cycle;Max_cycle;Signal;HPM_P1;HPM_P2
2022/07/19 00:00:20;;;;;;;2.13;1.60;;;19.80;64.90;;;;;;5067950;28;20837;-88
2022/07/19 00:02:46;;;;;;;5.10;2.23;;;19.80;66.80;;;;;;5033722;28;20186;-89
2022/07/19 00:05:13;;;;;;;4.67;2.03;;;19.80;66.60;;;;;;5049286;28;20450;-88
2022/07/19 00:07:39;;;;;;;12.30;3.00;;;19.70;66.70;;;;;;5051327;28;20449;-87
2022/07/19 00:10:07;;;;;;;6.57;2.03;;;19.60;68.40;;;;;;5038899;28;20526;-89
2022/07/19 00:12:34;;;;;;;4.00;2.00;;;19.60;68.60;;;;;;5049863;28;20451;-90
2022/07/19 00:14:59;;;;;;;5.50;2.60;;;19.70;69.40;;;;;;5035801;28;20463;-89
2022/07/19 00:17:25;;;;;;;8.60;2.53;;;19.70;69.40;;;;;;5047002;28;20961;-88
2022/07/19 00:19:50;;;;;;;12.53;2.50;;;19.60;71.00;;;;;;5048974;28;20701;-88
2022/07/19 00:22:16;;;;;;;12.67;2.37;;;19.70;73.10;;;;;;5041498;28;20555;-88
2022/07/19 00:24:42;;;;;;;4.50;2.60;;;19.50;74.30;;;;;;5041023;28;20173;-88
2022/07/19 00:27:07;;;;;;;6.00;2.27;;;19.40;75.40;;;;;;5052892;28;20184;-89
2022/07/19 00:29:33;;;;;;;5.43;2.50;;;19.40;76.70;;;;;;5051680;28;20266;-90
2022/07/19 00:31:58;;;;;;;8.43;2.67;;;20.50;79.40;;;;;;5051872;28;20263;-90
2022/07/19 00:34:24;;;;;;;5.33;2.80;;;;;;;;;;5064976;28;20185;-89
2022/07/19 00:36:50;;;;;;;6.77;3.93;;;19.30;77.00;;;;;;5054965;28;20604;-89
2022/07/19 00:39:15;;;;;;;11.97;4.40;;;19.30;77.80;;;;;;5055425;28;20871;-89
2022/07/19 00:41:42;;;;;;;6.63;3.30;;;19.30;78.70;;;;;;5070485;28;20206;-89
2022/07/19 00:44:10;;;;;;;19.03;3.80;;;21.90;82.40;;;;;;5071862;28;20201;-88
2022/07/19 00:46:36;;;;;;;9.43;2.73;;;20.10;81.70;;;;;;5081954;28;20479;-87
2022/07/19 00:49:03;;;;;;;4.23;2.60;;;19.30;81.70;;;;;;5059654;28;20430;-88
2022/07/19 00:51:29;;;;;;;5.80;3.33;;;19.20;82.70;;;;;;5041074;28;20478;-89
2022/07/19 00:53:56;;;;;;;8.53;2.73;;;19.10;84.40;;;;;;5037349;28;20544;-88
2022/07/19 00:56:24;;;;;;;5.60;3.20;;;19.10;85.00;;;;;;5069690;28;20191;-88
2022/07/19 00:58:51;;;;;;;6.83;2.73;;;19.00;86.10;;;;;;5039595;28;20534;-88
2022/07/19 01:01:17;;;;;;;3.60;2.30;;;18.90;87.00;;;;;;5038825;28;20529;-88
2022/07/19 01:06:12;;;;;;;4.07;3.10;;;18.90;89.70;;;;;;5015959;28;20484;-89
2022/07/19 01:08:38;;;;;;;5.87;3.20;;;18.90;90.50;;;;;;5006358;28;20448;-89
2022/07/19 01:11:05;;;;;;;5.37;3.10;;;18.90;91.20;;;;;;5027437;28;20206;-89
2022/07/19 01:13:31;;;;;;;9.53;3.30;;;18.90;91.30;;;;;;5026696;28;20197;-87
2022/07/19 01:15:58;;;;;;;4.53;2.70;;;18.70;91.70;;;;;;5017631;28;20460;-87
2022/07/19 01:18:24;;;;;;;8.77;3.57;;;;;;;;;;5007736;28;20471;-87
2022/07/19 01:20:50;;;;;;;4.37;2.97;;;18.60;93.80;;;;;;5013904;28;20544;-89
2022/07/19 01:23:16;;;;;;;22.07;4.03;;;18.40;95.90;;;;;;5013983;28;22608;-88
2022/07/19 01:25:42;;;;;;;6.03;2.70;;;;;;;;;;5028184;28;20468;-87
2022/07/19 01:28:08;;;;;;;7.40;3.80;;;;;;;;;;5012625;28;20206;-87
2022/07/19 01:30:35;;;;;;;5.30;3.70;;;17.90;99.90;;;;;;5018023;28;20452;-88
2022/07/19 01:33:01;;;;;;;4.93;3.60;;;17.90;99.90;;;;;;5041310;28;20460;-88
2022/07/19 01:35:27;;;;;;;6.03;3.40;;;16.90;99.90;;;;;;5040168;28;20448;-91
2022/07/19 01:37:53;;;;;;;15.17;3.40;;;17.80;99.90;;;;;;5014791;28;20445;-86
2022/07/19 01:40:19;;;;;;;7.00;3.57;;;17.60;99.90;;;;;;5027184;28;20460;-89
2022/07/19 01:42:46;;;;;;;7.27;4.00;;;17.50;99.90;;;;;;5013642;28;20445;-90
2022/07/19 01:45:12;;;;;;;12.57;4.23;;;17.40;99.90;;;;;;5035391;28;20445;-90
2022/07/19 01:47:40;;;;;;;8.23;3.87;;;17.30;99.90;;;;;;5012577;28;20453;-89
2022/07/19 01:50:07;;;;;;;5.17;3.70;;;17.30;99.90;;;;;;5022800;28;20922;-89
2022/07/19 01:52:33;;;;;;;5.03;3.43;;;;;;;;;;5002827;28;20446;-89
2022/07/19 01:54:58;;;;;;;10.33;3.50;;;17.30;99.90;;;;;;5012861;28;20554;-89
2022/07/19 01:57:25;;;;;;;7.50;3.40;;;;;;;;;;5023242;28;21063;-91
2022/07/19 01:59:51;;;;;;;12.10;3.60;;;17.40;99.90;;;;;;5018067;28;20229;-89
2022/07/19 02:02:17;;;;;;;4.90;3.80;;;;;;;;;;5020986;28;20441;-88
2022/07/19 02:04:42;;;;;;;5.30;3.67;;;17.30;99.90;;;;;;5018035;28;20246;-88
2022/07/19 02:07:08;;;;;;;9.13;3.30;;;17.20;99.90;;;;;;5012656;28;20695;-89
2022/07/19 02:09:33;;;;;;;9.23;4.03;;;;;;;;;;5010517;28;21968;-89
2022/07/19 02:11:59;;;;;;;9.07;3.33;;;17.10;99.90;;;;;;5023734;28;20189;-89
2022/07/19 02:14:25;;;;;;;5.10;2.87;;;17.50;99.90;;;;;;4997831;28;20472;-89
2022/07/19 02:16:51;;;;;;;6.17;3.87;;;;;;;;;;5016340;28;20182;-90
2022/07/19 02:19:17;;;;;;;5.83;2.90;;;;;;;;;;5016022;28;20864;-88
2022/07/19 02:21:43;;;;;;;7.03;3.53;;;17.10;99.90;;;;;;5011019;28;20440;-87
2022/07/19 02:24:08;;;;;;;5.50;2.90;;;17.60;99.90;;;;;;5009327;28;20514;-90
2022/07/19 02:26:35;;;;;;;8.27;3.40;;;17.10;99.90;;;;;;5021893;28;20198;-87
2022/07/19 02:29:01;;;;;;;8.20;3.53;;;17.10;99.90;;;;;;5016802;28;20734;-90
2022/07/19 02:31:26;;;;;;;6.07;2.60;;;17.40;99.90;;;;;;5013130;28;20513;-89
2022/07/19 02:33:52;;;;;;;7.03;4.20;;;17.00;99.90;;;;;;5000426;28;20210;-88
2022/07/19 02:36:18;;;;;;;6.57;3.17;;;17.00;99.90;;;;;;5006360;28;20180;-89
2022/07/19 02:38:44;;;;;;;7.77;3.43;;;17.20;99.90;;;;;;5001148;28;20186;-89
2022/07/19 02:41:10;;;;;;;5.80;3.40;;;17.30;99.90;;;;;;5016629;28;20200;-89
2022/07/19 02:43:36;;;;;;;4.73;2.90;;;17.30;99.90;;;;;;5022583;28;20433;-88
2022/07/19 02:46:02;;;;;;;5.63;3.20;;;17.30;99.90;;;;;;5004707;28;20463;-89
2022/07/19 02:48:28;;;;;;;13.53;4.43;;;17.40;99.90;;;;;;5017025;28;20436;-88
2022/07/19 02:50:54;;;;;;;5.93;3.77;;;17.30;99.90;;;;;;5018136;28;20829;-90
2022/07/19 02:53:19;;;;;;;4.07;3.40;;;17.20;99.90;;;;;;5013216;28;20264;-89
2022/07/19 02:55:45;;;;;;;6.20;3.60;;;18.20;99.90;;;;;;5014660;28;20233;-89
2022/07/19 02:58:11;;;;;;;14.83;3.83;;;;;;;;;;4998871;28;20181;-88
2022/07/19 03:00:37;;;;;;;4.27;3.83;;;;;;;;;;5010786;28;20222;-89
2022/07/19 03:05:48;;;;;;;7.10;3.47;;;16.80;99.90;;;;;;5015233;28;20458;-86
2022/07/19 03:08:14;;;;;;;5.70;3.90;;;16.70;99.90;;;;;;5011221;28;20487;-86
2022/07/19 03:10:40;;;;;;;7.67;3.93;;;;;;;;;;5013046;28;20449;-87
2022/07/19 03:13:05;;;;;;;5.47;3.40;;;16.60;99.90;;;;;;5014195;28;20395;-89
2022/07/19 03:15:31;;;;;;;5.17;3.30;;;16.50;99.90;;;;;;5021348;28;20461;-90
2022/07/19 03:17:56;;;;;;;5.70;3.70;;;16.50;99.90;;;;;;5022499;28;21080;-88
2022/07/19 03:20:22;;;;;;;6.10;3.60;;;;;;;;;;5017468;28;20754;-87
2022/07/19 03:22:49;;;;;;;6.27;4.30;;;;;;;;;;5005955;28;20182;-88
2022/07/19 03:25:14;;;;;;;8.37;4.20;;;16.40;99.90;;;;;;5008372;28;20463;-90
2022/07/19 03:27:40;;;;;;;8.63;3.40;;;16.50;99.90;;;;;;5020621;28;20943;-88
2022/07/19 03:30:06;;;;;;;6.23;4.27;;;16.60;99.90;;;;;;5008297;28;20194;-88
2022/07/19 03:32:32;;;;;;;7.40;3.73;;;;;;;;;;5014999;28;20186;-90
2022/07/19 03:34:58;;;;;;;6.37;4.07;;;16.50;99.90;;;;;;5017785;28;20475;-89
2022/07/19 03:37:24;;;;;;;5.30;3.80;;;16.50;99.90;;;;;;5012579;28;20925;-88
2022/07/19 03:39:49;;;;;;;6.90;4.20;;;16.30;99.90;;;;;;5005755;28;20212;-89
2022/07/19 03:42:15;;;;;;;9.53;3.83;;;16.30;99.90;;;;;;5022926;28;20750;-86
2022/07/19 03:44:41;;;;;;;12.93;3.70;;;16.20;99.90;;;;;;5001289;28;20207;-86
2022/07/19 03:47:07;;;;;;;5.23;3.40;;;;;;;;;;5003817;28;20212;-88
2022/07/19 03:49:33;;;;;;;6.97;3.40;;;;;;;;;;5011870;28;20201;-89
2022/07/19 03:51:58;;;;;;;6.53;3.43;;;15.80;99.90;;;;;;5001626;28;20504;-88
2022/07/19 03:54:24;;;;;;;5.37;3.50;;;;;;;;;;5015027;28;20571;-89
2022/07/19 03:56:50;;;;;;;5.73;4.13;;;15.80;99.90;;;;;;4998999;28;20221;-89
2022/07/19 03:59:16;;;;;;;4.20;3.40;;;;;;;;;;5013607;28;20461;-89
2022/07/19 04:01:42;;;;;;;5.70;3.83;;;16.00;99.90;;;;;;5014495;28;20186;-89
2022/07/19 04:04:07;;;;;;;3.80;3.00;;;16.20;99.90;;;;;;5003701;28;20463;-90
2022/07/19 04:06:33;;;;;;;6.60;4.00;;;16.30;99.90;;;;;;5009916;28;20690;-88
2022/07/19 04:08:59;;;;;;;21.30;3.80;;;16.30;99.90;;;;;;5002493;28;20174;-90
2022/07/19 04:11:24;;;;;;;7.10;4.40;;;16.30;99.90;;;;;;5009696;28;20177;-87
2022/07/19 04:13:50;;;;;;;8.07;4.07;;;;;;;;;;5016698;28;20961;-90
2022/07/19 04:16:16;;;;;;;11.47;4.10;;;16.30;99.90;;;;;;4997244;28;20209;-88
2022/07/19 04:18:41;;;;;;;5.93;4.10;;;16.40;99.90;;;;;;5011209;28;20432;-87
2022/07/19 04:21:07;;;;;;;7.33;4.40;;;;;;;;;;5018658;28;20210;-89
2022/07/19 04:23:33;;;;;;;9.13;4.60;;;16.40;99.90;;;;;;5025805;28;20269;-87
2022/07/19 04:25:58;;;;;;;10.47;3.73;;;16.40;99.90;;;;;;5022608;28;20452;-89
2022/07/19 04:28:25;;;;;;;6.47;4.20;;;;;;;;;;4999461;28;20268;-87
2022/07/19 04:30:50;;;;;;;7.53;4.00;;;16.80;99.90;;;;;;5000901;28;20260;-86
2022/07/19 04:33:17;;;;;;;12.13;5.30;;;18.30;99.90;;;;;;4994898;28;20453;-89
2022/07/19 04:35:43;;;;;;;6.63;4.40;;;20.20;99.90;;;;;;4999013;28;20246;-88
2022/07/19 04:38:09;;;;;;;8.83;4.27;;;21.80;99.90;;;;;;5014524;28;20900;-89
2022/07/19 04:40:36;;;;;;;13.60;4.57;;;23.40;99.90;;;;;;4997598;28;20552;-89
2022/07/19 04:43:01;;;;;;;8.67;5.73;;;;;;;;;;5000984;28;20554;-88
2022/07/19 04:45:27;;;;;;;6.90;4.53;;;25.20;95.30;;;;;;5024858;28;20531;-89
2022/07/19 04:47:53;;;;;;;7.97;4.60;;;26.20;94.10;;;;;;5009562;28;20567;-90
2022/07/19 04:50:19;;;;;;;14.57;5.60;;;26.90;88.50;;;;;;5015491;28;20453;-87
2022/07/19 04:52:44;;;;;;;5.00;4.47;;;27.70;83.30;;;;;;5009655;28;21131;-88
2022/07/19 04:55:11;;;;;;;13.00;5.70;;;28.50;83.30;;;;;;5012864;28;20206;-88
2022/07/19 04:57:37;;;;;;;10.43;5.23;;;29.50;75.20;;;;;;5012290;28;20191;-89
2022/07/19 05:00:09;;;;;;;7.00;5.37;;;31.90;71.00;;;;;;5013195;28;20481;-87
2022/07/19 05:02:35;;;;;;;8.30;5.37;;;31.10;65.30;;;;;;5012550;28;21842;-88
2022/07/19 05:05:00;;;;;;;5.73;4.80;;;32.10;62.30;;;;;;4988300;28;21190;-89
2022/07/19 05:07:26;;;;;;;7.90;5.10;;;32.60;58.60;;;;;;4994235;28;20444;-89
2022/07/19 05:09:52;;;;;;;6.00;4.73;;;34.10;56.90;;;;;;4991881;28;20972;-89
2022/07/19 05:12:17;;;;;;;7.23;5.50;;;35.10;51.60;;;;;;4996609;28;20206;-89
2022/07/19 05:14:43;;;;;;;16.27;6.27;;;34.80;51.10;;;;;;5012260;28;20824;-90
2022/07/19 05:17:08;;;;;;;9.53;5.90;;;35.30;50.10;;;;;;4994875;28;20933;-88
2022/07/19 05:19:34;;;;;;;15.73;6.07;;;35.80;48.60;;;;;;5009615;28;20202;-89
2022/07/19 05:21:59;;;;;;;11.60;6.57;;;36.50;47.60;;;;;;5014165;28;21458;-89
2022/07/19 05:24:25;;;;;;;11.80;6.57;;;37.10;45.90;;;;;;4996018;28;20665;-89
2022/07/19 05:26:50;;;;;;;10.90;6.27;;;37.40;44.30;;;;;;5007565;28;20702;-90
2022/07/19 05:29:16;;;;;;;13.13;6.50;;;;;;;;;;5008973;28;20199;-90
2022/07/19 05:31:42;;;;;;;16.33;7.43;;;;;;;;;;5015051;28;20243;-89
2022/07/19 05:34:08;;;;;;;15.90;8.13;;;39.00;40.80;;;;;;5010893;28;21013;-92
2022/07/19 05:36:34;;;;;;;29.07;8.97;;;39.50;40.60;;;;;;5014442;28;20448;-89
2022/07/19 05:39:00;;;;;;;9.87;8.87;;;39.40;39.30;;;;;;4998678;28;21480;-88
2022/07/19 05:41:25;;;;;;;20.20;8.37;;;41.00;40.00;;;;;;5015901;28;20457;-89
2022/07/19 05:43:52;;;;;;;15.20;9.67;;;39.80;37.80;;;;;;5012984;28;20290;-89
2022/07/19 05:46:18;;;;;;;13.03;10.17;;;39.70;38.30;;;;;;5007678;28;20554;-89
2022/07/19 05:48:44;;;;;;;17.90;10.17;;;;;;;;;;5005783;28;20442;-90
2022/07/19 05:51:10;;;;;;;10.77;10.07;;;;;;;;;;5011230;28;20438;-90
2022/07/19 05:53:36;;;;;;;12.40;11.20;;;41.30;36.60;;;;;;5008675;28;20453;-90
2022/07/19 05:56:03;;;;;;;11.47;10.77;;;41.30;37.10;;;;;;5015627;28;20438;-90
2022/07/19 05:58:29;;;;;;;11.77;10.77;;;;;;;;;;5014223;28;20649;-89
2022/07/19 06:03:39;;;;;;;17.00;11.23;;;41.80;35.70;;;;;;5013806;28;20446;-89
2022/07/19 06:06:04;;;;;;;15.30;12.07;;;41.90;36.30;;;;;;5019454;28;20448;-91
2022/07/19 06:08:31;;;;;;;14.37;12.43;;;42.90;35.70;;;;;;5015863;28;20235;-90
2022/07/19 06:10:56;;;;;;;13.30;12.40;;;43.40;34.50;;;;;;4998782;28;20186;-89
2022/07/19 06:13:22;;;;;;;15.20;14.00;;;43.80;33.90;;;;;;5002590;28;20456;-90
2022/07/19 06:15:49;;;;;;;15.10;13.93;;;;;;;;;;5027787;28;20178;-91
2022/07/19 06:18:15;;;;;;;15.23;13.70;;;;;;;;;;5030304;28;20440;-90
2022/07/19 06:20:41;;;;;;;14.30;13.20;;;42.40;33.00;;;;;;5015051;28;20491;-91
2022/07/19 06:23:07;;;;;;;14.73;13.23;;;;;;;;;;5006855;28;21015;-90
2022/07/19 06:25:33;;;;;;;13.47;11.67;;;41.50;34.00;;;;;;5018775;28;20201;-91
2022/07/19 06:27:58;;;;;;;14.23;12.90;;;41.30;35.10;;;;;;5017238;28;20440;-91
2022/07/19 06:30:24;;;;;;;13.00;11.83;;;;;;;;;;5015342;28;20186;-89
2022/07/19 06:32:50;;;;;;;15.87;14.40;;;43.20;32.70;;;;;;5014668;28;20261;-91
2022/07/19 06:35:16;;;;;;;15.47;14.47;;;;;;;;;;4999938;28;20593;-90
2022/07/19 06:37:42;;;;;;;16.20;15.10;;;;;;;;;;5014631;28;20268;-91
2022/07/19 06:40:08;;;;;;;16.83;15.30;;;;;;;;;;5016013;28;20210;-90
2022/07/19 06:42:34;;;;;;;16.83;15.73;;;44.50;31.40;;;;;;5013958;28;20436;-89
2022/07/19 06:45:01;;;;;;;16.53;15.50;;;;;;;;;;5002086;28;20512;-89
2022/07/19 06:47:28;;;;;;;16.73;15.40;;;;;;;;;;5013020;28;20177;-89
2022/07/19 06:49:54;;;;;;;16.33;15.33;;;;;;;;;;5005262;28;20520;-89
2022/07/19 06:52:20;;;;;;;20.97;19.07;;;;;;;;;;5009930;28;20524;-89
2022/07/19 06:54:46;;;;;;;16.43;15.13;;;46.20;29.70;;;;;;5010089;28;20520;-90
2022/07/19 06:57:12;;;;;;;16.97;16.00;;;;;;;;;;5007831;28;20186;-89
2022/07/19 06:59:38;;;;;;;15.57;14.67;;;;;;;;;;5014027;28;20471;-89
2022/07/19 07:02:04;;;;;;;16.93;14.47;;;45.10;29.50;;;;;;4997549;28;20529;-89
2022/07/19 07:04:30;;;;;;;16.40;15.30;;;42.70;31.70;;;;;;5023050;28;21452;-89
2022/07/19 07:06:57;;;;;;;18.27;16.50;;;;;;;;;;5022403;28;20205;-91
2022/07/19 07:09:23;;;;;;;28.53;18.10;;;44.30;31.30;;;;;;5030917;28;20444;-90
2022/07/19 07:11:48;;;;;;;18.03;17.23;;;45.50;30.60;;;;;;5015562;28;20441;-90
2022/07/19 07:14:14;;;;;;;19.70;18.50;;;;;;;;;;5009955;28;20209;-90
2022/07/19 07:16:40;;;;;;;19.30;18.50;;;;;;;;;;5019867;28;20216;-90
2022/07/19 07:19:06;;;;;;;16.60;15.73;;;;;;;;;;5021356;28;20512;-89
2022/07/19 07:21:34;;;;;;;16.50;15.60;;;47.00;26.30;;;;;;5019019;28;20461;-89
2022/07/19 07:24:01;;;;;;;18.63;17.57;;;47.10;24.80;;;;;;4993917;28;20460;-90
2022/07/19 07:26:27;;;;;;;19.13;18.00;;;;;;;;;;5021735;28;20955;-90
2022/07/19 07:28:53;;;;;;;17.30;16.50;;;;;;;;;;5017475;28;20425;-90
2022/07/19 07:31:19;;;;;;;17.00;16.30;;;;;;;;;;4999914;28;20436;-91
2022/07/19 07:33:45;;;;;;;17.33;16.43;;;47.50;24.00;;;;;;5011229;28;20552;-92
2022/07/19 07:36:11;;;;;;;16.77;15.50;;;;;;;;;;5007286;28;20547;-89
2022/07/19 07:38:37;;;;;;;15.10;14.40;;;;;;;;;;5016210;28;20289;-88
2022/07/19 07:41:04;;;;;;;12.43;11.83;;;44.70;24.80;;;;;;5015720;28;20673;-90
2022/07/19 07:43:29;;;;;;;14.30;13.60;;;44.20;25.10;;;;;;5019295;28;20433;-91
2022/07/19 07:45:55;;;;;;;15.60;14.70;;;44.10;25.60;;;;;;5022826;28;20930;-90
2022/07/19 07:48:21;;;;;;;15.20;14.20;;;44.20;26.50;;;;;;5034707;28;20205;-91
2022/07/19 07:50:47;;;;;;;15.10;14.40;;;44.50;25.80;;;;;;5016124;28;20701;-92
2022/07/19 07:53:13;;;;;;;16.70;15.60;;;44.80;25.90;;;;;;5022143;28;20273;-91
2022/07/19 07:55:39;;;;;;;15.33;14.47;;;44.70;25.70;;;;;;5021174;28;20495;-90
2022/07/19 07:58:07;;;;;;;15.70;14.60;;;44.50;26.00;;;;;;5017931;28;20186;-90
2022/07/19 08:00:33;;;;;;;18.30;17.40;;;;;;;;;;5004065;28;20468;-89
2022/07/19 08:02:59;;;;;;;21.10;20.17;;;44.60;25.30;;;;;;5008713;28;20421;-89
2022/07/19 08:05:24;;;;;;;23.10;21.90;;;45.30;25.10;;;;;;5002806;28;20602;-92
2022/07/19 08:07:50;;;;;;;20.80;19.93;;;45.80;24.50;;;;;;5003341;28;20181;-90
2022/07/19 08:10:16;;;;;;;22.83;21.63;;;44.80;25.20;;;;;;5002874;28;20828;-90
2022/07/19 08:12:41;;;;;;;23.70;22.70;;;44.70;25.40;;;;;;4996044;28;20182;-90
2022/07/19 08:15:08;;;;;;;20.87;20.03;;;44.50;24.80;;;;;;5013769;28;20213;-91
2022/07/19 08:17:34;;;;;;;19.70;18.90;;;43.40;25.60;;;;;;5008268;28;20328;-89
2022/07/19 08:20:03;;;;;;;15.73;14.83;;;42.70;24.90;;;;;;5017863;28;20531;-91
2022/07/19 08:22:29;;;;;;;16.13;15.30;;;41.30;25.80;;;;;;5018242;28;20206;-91
2022/07/19 08:24:54;;;;;;;14.07;13.37;;;40.20;26.20;;;;;;5016769;28;20656;-90
2022/07/19 08:27:20;;;;;;;13.07;12.47;;;40.80;26.60;;;;;;5015925;28;20259;-90
2022/07/19 08:29:45;;;;;;;13.53;12.77;;;40.60;26.70;;;;;;5015514;28;20242;-90
2022/07/19 08:32:11;;;;;;;12.40;11.80;;;39.70;26.80;;;;;;5017820;28;20722;-88
2022/07/19 08:34:36;;;;;;;12.83;12.13;;;39.40;27.50;;;;;;5019769;28;20214;-92
2022/07/19 08:37:03;;;;;;;13.03;12.23;;;39.30;27.40;;;;;;5006125;28;20195;-89
2022/07/19 08:39:29;;;;;;;12.70;11.57;;;39.70;27.30;;;;;;5011555;28;20239;-90
2022/07/19 08:41:54;;;;;;;12.50;11.60;;;39.50;27.80;;;;;;5003775;28;20463;-90
2022/07/19 08:44:22;;;;;;;12.87;12.27;;;39.30;27.60;;;;;;5019437;28;20213;-88
2022/07/19 08:46:48;;;;;;;12.87;12.20;;;40.00;28.20;;;;;;5013627;28;20195;-91
2022/07/19 08:49:14;;;;;;;13.30;12.50;;;40.70;27.30;;;;;;5019104;28;20493;-89
2022/07/19 08:51:41;;;;;;;13.30;12.20;;;41.20;27.20;;;;;;5017999;28;20457;-89
2022/07/19 08:54:07;;;;;;;13.40;12.60;;;41.10;26.40;;;;;;5002523;28;20455;-89
2022/07/19 08:59:16;;;;;;;12.63;11.80;;;40.20;27.50;;;;;;5040130;28;20265;-83
2022/07/19 09:01:42;;;;;;;12.70;12.00;;;39.90;27.60;;;;;;5043150;28;20429;-81
2022/07/19 09:04:15;;;;;;;13.50;12.80;;;39.30;28.10;;;;;;5046772;28;20260;-81
2022/07/19 09:06:49;;;;;;;13.47;12.77;;;39.60;28.10;;;;;;5048489;28;20207;-82
2022/07/19 09:09:20;;;;;;;12.90;11.97;;;39.10;27.30;;;;;;5048897;28;21006;-82
2022/07/19 09:11:48;;;;;;;14.00;12.70;;;41.40;26.90;;;;;;5028320;28;20436;-79
2022/07/19 09:14:16;;;;;;;12.30;11.70;;;41.10;26.70;;;;;;5048724;28;21082;-80
2022/07/19 09:17:11;;;;;;;12.90;12.20;;;41.10;26.80;;;;;;5031171;28;20484;-82
2022/07/19 09:19:42;;;;;;;12.60;11.90;;;40.90;27.00;;;;;;5045099;28;20551;-81
2022/07/19 09:22:11;;;;;;;12.23;11.50;;;40.30;27.10;;;;;;5035450;28;20445;-82
2022/07/19 09:24:42;;;;;;;13.37;12.67;;;40.80;26.60;;;;;;5051813;28;20426;-83
2022/07/19 09:27:11;;;;;;;13.53;12.83;;;40.90;27.20;;;;;;5034846;28;20454;-83
2022/07/19 09:29:38;;;;;;;12.73;11.93;;;41.40;26.40;;;;;;5047732;28;20434;-79
2022/07/19 09:32:07;;;;;;;12.50;11.80;;;41.20;26.30;;;;;;5049394;28;20547;-82
2022/07/19 09:34:35;;;;;;;13.03;12.03;;;41.50;26.60;;;;;;5049078;28;20442;-83
2022/07/19 09:37:12;;;;;;;14.53;13.83;;;41.00;26.60;;;;;;5051400;28;21154;-81
2022/07/19 09:39:41;;;;;;;14.20;13.30;;;41.00;26.30;;;;;;5048698;28;21094;-81
2022/07/19 09:42:08;;;;;;;13.50;12.70;;;41.10;25.70;;;;;;5049538;28;20464;-82
2022/07/19 09:44:34;;;;;;;13.63;12.93;;;41.60;25.20;;;;;;5051038;28;20487;-84
2022/07/19 09:46:59;;;;;;;16.00;15.10;;;42.20;25.00;;;;;;5051678;28;20609;-79
2022/07/19 09:49:26;;;;;;;13.67;12.97;;;42.20;24.60;;;;;;5046664;28;20440;-83
2022/07/19 09:51:53;;;;;;;13.17;12.47;;;40.60;25.30;;;;;;5036732;28;20191;-83
2022/07/19 09:54:24;;;;;;;13.17;12.37;;;40.30;25.50;;;;;;5048795;28;20923;-82
2022/07/19 09:56:51;;;;;;;12.93;12.23;;;40.50;25.60;;;;;;5041645;28;20484;-81
2022/07/19 09:59:18;;;;;;;12.33;11.63;;;40.20;25.70;;;;;;5039672;28;20581;-83
2022/07/19 10:01:45;;;;;;;12.40;11.70;;;39.90;25.90;;;;;;5050732;28;20902;-83
2022/07/19 10:04:32;;;;;;;12.80;12.10;;;40.40;26.30;;;;;;5041253;28;20440;-82
2022/07/19 10:06:58;;;;;;;13.57;12.80;;;40.10;25.80;;;;;;5046690;28;20824;-83
2022/07/19 10:09:23;;;;;;;13.57;12.50;;;39.60;26.00;;;;;;5036359;28;20437;-81
2022/07/19 10:11:50;;;;;;;13.80;13.10;;;40.40;25.70;;;;;;5046483;28;20189;-81
2022/07/19 10:14:16;;;;;;;12.87;11.87;;;40.50;26.20;;;;;;5045742;28;20200;-80
2022/07/19 10:16:46;;;;;;;13.40;12.70;;;40.60;25.50;;;;;;5049909;28;20436;-81
2022/07/19 10:19:28;;;;;;;12.67;12.07;;;40.20;25.40;;;;;;5032523;28;20188;-80
2022/07/19 10:21:54;;;;;;;12.50;11.77;;;40.10;26.60;;;;;;5033207;28;20514;-83
2022/07/19 10:24:50;;;;;;;12.87;12.20;;;39.90;25.90;;;;;;5041092;28;20435;-81
2022/07/19 10:27:18;;;;;;;13.80;12.87;;;40.00;26.30;;;;;;5023503;28;20458;-80
2022/07/19 10:29:44;;;;;;;12.67;11.77;;;39.80;26.20;;;;;;5044898;28;20814;-82
2022/07/19 10:32:12;;;;;;;12.77;12.27;;;39.70;26.00;;;;;;5054705;28;20437;-82
2022/07/19 10:34:38;;;;;;;12.93;12.13;;;;;;;;;;5046497;28;20524;-81
2022/07/19 10:37:04;;;;;;;13.20;12.27;;;39.10;25.90;;;;;;5045980;28;20470;-80
2022/07/19 10:39:35;;;;;;;13.60;12.50;;;38.80;26.70;;;;;;5051475;28;20466;-79
2022/07/19 10:42:14;;;;;;;12.60;11.20;;;37.90;27.00;;;;;;5044750;28;20196;-81
2022/07/19 10:44:54;;;;;;;11.53;10.93;;;36.70;27.70;;;;;;5047730;28;20429;-80
2022/07/19 10:47:21;;;;;;;12.30;11.70;;;36.00;27.70;;;;;;5048004;28;20469;-82
2022/07/19 10:49:48;;;;;;;11.73;11.03;;;35.80;28.50;;;;;;5048429;28;20448;-82
2022/07/19 10:52:29;;;;;;;11.57;10.97;;;35.20;28.20;;;;;;5048545;28;20437;-82
2022/07/19 10:55:28;;;;;;;11.37;10.77;;;34.80;28.30;;;;;;5052924;28;20451;-82
2022/07/19 10:58:06;;;;;;;11.00;9.87;;;34.60;28.50;;;;;;5049890;28;20537;-83
2022/07/19 11:00:44;;;;;;;11.47;10.50;;;34.50;28.90;;;;;;5056436;28;20992;-83
2022/07/19 11:03:22;;;;;;;10.60;10.10;;;34.60;28.20;;;;;;5050673;28;20432;-82
2022/07/19 11:05:54;;;;;;;11.53;10.73;;;34.50;28.00;;;;;;5046079;28;20441;-82
2022/07/19 11:08:36;;;;;;;11.20;10.50;;;34.40;28.80;;;;;;5053477;28;20530;-82
2022/07/19 11:11:06;;;;;;;10.50;9.90;;;34.40;28.60;;;;;;5050953;28;20528;-82
2022/07/19 11:13:32;;;;;;;11.50;10.70;;;34.40;28.60;;;;;;5038119;28;20552;-82
2022/07/19 11:15:58;;;;;;;9.30;8.60;;;34.40;29.20;;;;;;5028872;28;20434;-83
2022/07/19 11:18:23;;;;;;;11.47;10.47;;;34.40;28.80;;;;;;5051542;28;20509;-81
2022/07/19 11:20:49;;;;;;;10.33;9.33;;;34.40;28.90;;;;;;5040851;28;20455;-82
2022/07/19 11:23:20;;;;;;;10.40;9.70;;;34.60;28.40;;;;;;5043896;28;20218;-83
2022/07/19 11:25:46;;;;;;;10.30;9.43;;;34.80;27.80;;;;;;5050106;28;20163;-80
2022/07/19 11:28:25;;;;;;;10.80;10.10;;;34.70;28.00;;;;;;5047881;28;20964;-84
2022/07/19 11:30:51;;;;;;;10.10;9.50;;;34.80;28.70;;;;;;5033854;28;20439;-83
2022/07/19 11:33:20;;;;;;;9.70;9.10;;;34.90;27.40;;;;;;5033986;28;20435;-82
2022/07/19 11:35:56;;;;;;;10.40;9.87;;;34.90;28.00;;;;;;5035773;28;20440;-81
2022/07/19 11:38:22;;;;;;;10.80;10.00;;;35.10;27.90;;;;;;5034271;28;20516;-85
2022/07/19 11:40:48;;;;;;;10.53;10.03;;;35.10;27.50;;;;;;5031289;28;21015;-84
2022/07/19 11:43:13;;;;;;;10.47;9.87;;;34.80;27.10;;;;;;5037792;28;20191;-80
2022/07/19 11:45:49;;;;;;;11.23;10.50;;;34.70;27.90;;;;;;5031428;28;20176;-82
2022/07/19 11:48:30;;;;;;;13.73;10.17;;;34.50;27.60;;;;;;5049981;28;20271;-81
2022/07/19 11:51:07;;;;;;;9.83;9.13;;;34.60;27.70;;;;;;5042959;28;20463;-83
2022/07/19 11:53:34;;;;;;;10.17;9.27;;;34.80;27.50;;;;;;5039918;28;21234;-84
2022/07/19 11:56:00;;;;;;;10.40;9.70;;;34.90;27.40;;;;;;5045803;28;20806;-82
2022/07/19 11:58:26;;;;;;;9.50;8.90;;;34.90;27.90;;;;;;5034868;28;20457;-83
2022/07/19 12:00:52;;;;;;;10.40;9.80;;;35.00;27.60;;;;;;5048582;28;20227;-83
2022/07/19 12:03:19;;;;;;;11.43;10.47;;;35.00;27.70;;;;;;5040283;28;20869;-79
2022/07/19 12:06:03;;;;;;;16.80;11.07;;;35.00;27.30;;;;;;5048243;28;20250;-80
2022/07/19 12:08:40;;;;;;;10.63;9.83;;;35.00;27.70;;;;;;5044041;28;20433;-82
2022/07/19 12:11:23;;;;;;;10.93;9.67;;;35.10;27.80;;;;;;5042375;28;20940;-82
2022/07/19 12:13:51;;;;;;;10.40;9.67;;;35.10;27.70;;;;;;5047502;28;20435;-82
2022/07/19 12:16:18;;;;;;;10.73;10.03;;;35.00;26.80;;;;;;5047363;28;20445;-80
2022/07/19 12:18:55;;;;;;;10.63;9.70;;;35.00;27.20;;;;;;5047699;28;20424;-82
2022/07/19 12:21:21;;;;;;;10.37;9.77;;;35.20;27.10;;;;;;5042912;28;20461;-84
2022/07/19 12:24:10;;;;;;;10.00;9.23;;;35.30;27.50;;;;;;5044699;28;20970;-82
2022/07/19 12:26:35;;;;;;;10.53;9.83;;;35.30;28.20;;;;;;5027093;28;20707;-84
2022/07/19 12:29:15;;;;;;;10.07;9.10;;;35.30;27.90;;;;;;5034419;28;20507;-83
2022/07/19 12:31:45;;;;;;;11.17;10.10;;;35.20;27.50;;;;;;5035244;28;20174;-83
2022/07/19 12:34:11;;;;;;;11.70;9.67;;;35.20;27.90;;;;;;5029314;28;20595;-81
2022/07/19 12:36:37;;;;;;;10.37;9.47;;;35.20;27.10;;;;;;5043958;28;20487;-82
2022/07/19 12:39:04;;;;;;;10.30;9.20;;;35.30;27.40;;;;;;5043013;28;20457;-81
2022/07/19 12:41:30;;;;;;;10.40;9.50;;;35.40;26.70;;;;;;5036792;28;20477;-82
2022/07/19 12:43:55;;;;;;;11.53;9.40;;;35.40;26.80;;;;;;5032980;28;20458;-80
2022/07/19 12:46:21;;;;;;;11.07;10.00;;;35.30;27.10;;;;;;5046049;28;20189;-82
2022/07/19 12:48:47;;;;;;;9.90;9.30;;;35.30;27.30;;;;;;5043350;28;20173;-80
2022/07/19 12:51:13;;;;;;;10.97;9.97;;;35.20;27.60;;;;;;5043628;28;20427;-81
2022/07/19 12:53:38;;;;;;;10.07;9.50;;;35.30;28.10;;;;;;5028378;28;20438;-82
2022/07/19 12:56:04;;;;;;;11.67;10.43;;;35.30;27.30;;;;;;5047462;28;20192;-81
2022/07/19 13:01:13;;;;;;;10.30;9.70;;;35.30;26.40;;;;;;5045724;28;20204;-83
2022/07/19 13:03:40;;;;;;;9.87;9.27;;;35.30;27.00;;;;;;5044106;28;20434;-82
2022/07/19 13:06:05;;;;;;;11.43;10.43;;;35.20;26.60;;;;;;5050699;28;20186;-80